Time;durP1;ratioP1;P1;durP2;ratioP2;P2;SDS_P1;SDS_P2;PMS_P1;PMS_P2;Temp;Humidity;BMP_temperature;BMP_pressure;BME280_temperature;BME280_humidity;BME280_pressure;Samples;Min_cycle;Max_cycle;Signal;HPM_P1;HPM_P2
2021/03/06 00:00:58;;;;;;;6.60;6.00;;;;;;;0.03;68.18;101480.86;123429;1105;104377;-83
2021/03/06 00:03:28;;;;;;;6.08;5.60;;;;;;;0.02;68.69;101484.31;123428;1105;104718;-82
2021/03/06 00:05:55;;;;;;;6.13;5.63;;;;;;;0.03;68.84;101482.58;123336;1105;104255;-82
2021/03/06 00:08:24;;;;;;;6.07;5.57;;;;;;;0.04;68.78;101486.98;123123;1105;104315;-82
2021/03/06 00:10:54;;;;;;;6.05;5.55;;;;;;;-0.01;68.58;101484.22;123045;1105;104622;-87
2021/03/06 00:13:27;;;;;;;6.93;6.40;;;;;;;-0.02;69.27;101482.43;122878;1106;104312;-81
2021/03/06 00:15:57;;;;;;;6.65;6.12;;;;;;;-0.03;68.60;101483.26;122924;1105;104299;-81
2021/03/06 00:18:38;;;;;;;7.42;5.65;;;;;;;-0.01;68.67;101482.48;122546;1109;104801;-80
2021/03/06 00:21:08;;;;;;;6.83;6.23;;;;;;;0.00;68.65;101488.63;122658;1108;104677;-81
2021/03/06 00:23:51;;;;;;;6.72;6.10;;;;;;;0.00;69.12;101486.01;122730;1108;104431;-81
2021/03/06 00:26:24;;;;;;;7.43;5.90;;;;;;;-0.06;69.17;101485.78;122792;1109;104332;-81
2021/03/06 00:29:07;;;;;;;7.57;6.63;;;;;;;-0.08;69.09;101484.83;123399;1109;104319;-81
2021/03/06 00:31:43;;;;;;;8.67;7.87;;;;;;;-0.12;69.47;101486.47;124272;1109;104262;-83
2021/03/06 00:34:24;;;;;;;7.92;7.10;;;;;;;-0.14;69.94;101490.75;123822;1112;104341;-87
2021/03/06 00:37:05;;;;;;;9.38;7.40;;;;;;;-0.07;69.33;101497.97;123775;1109;104418;-82
2021/03/06 00:39:34;;;;;;;10.90;7.45;;;;;;;-0.05;68.97;101483.22;122887;1109;104377;-81
2021/03/06 00:42:03;;;;;;;10.85;7.75;;;;;;;-0.03;69.29;101488.50;122821;1112;104382;-81
2021/03/06 00:44:32;;;;;;;8.10;7.30;;;;;;;-0.05;69.61;101493.69;122830;1109;104197;-81
2021/03/06 00:46:59;;;;;;;9.40;8.23;;;;;;;0.08;69.19;101492.39;123030;1108;104261;-80
2021/03/06 00:49:27;;;;;;;9.20;8.30;;;;;;;0.03;68.86;101487.81;123381;1106;104317;-83
2021/03/06 00:51:53;;;;;;;8.63;7.80;;;;;;;0.03;69.45;101490.43;123362;1105;104229;-82
2021/03/06 00:54:20;;;;;;;9.30;7.63;;;;;;;0.04;69.93;101484.36;123302;1105;104821;-81
2021/03/06 00:56:48;;;;;;;9.70;8.70;;;;;;;0.06;69.90;101480.08;123249;1105;104344;-81
2021/03/06 00:59:18;;;;;;;12.87;9.30;;;;;;;0.04;69.91;101485.27;123381;1105;104514;-80
2021/03/06 01:01:59;;;;;;;10.03;8.80;;;;;;;-0.02;70.09;101479.81;123268;1105;104255;-80
2021/03/06 01:04:27;;;;;;;9.73;8.87;;;;;;;-0.06;70.56;101476.19;123365;1106;104309;-81
2021/03/06 01:06:54;;;;;;;9.85;8.20;;;;;;;-0.08;70.34;101477.88;123403;1105;104313;-81
2021/03/06 01:09:22;;;;;;;14.33;11.03;;;;;;;-0.06;69.77;101472.69;123381;1105;104242;-80
2021/03/06 01:12:04;;;;;;;12.47;9.50;;;;;;;-0.07;69.96;101473.52;123001;1109;104229;-82
2021/03/06 01:14:31;;;;;;;11.30;10.30;;;;;;;-0.07;70.31;101471.78;123056;1108;104411;-82
2021/03/06 01:16:58;;;;;;;10.45;9.53;;;;;;;-0.10;70.68;101476.05;123122;1106;104392;-81
2021/03/06 01:19:26;;;;;;;14.90;11.15;;;;;;;-0.09;69.98;101476.09;123286;1106;104320;-82
2021/03/06 01:21:52;;;;;;;10.77;9.50;;;;;;;-0.19;70.25;101453.95;123392;1105;104303;-85
2021/03/06 01:24:33;;;;;;;11.70;10.53;;;;;;;-0.06;70.43;101480.55;123272;1105;104450;-82
2021/03/06 01:27:00;;;;;;;13.18;10.20;;;;;;;-0.15;70.24;101474.99;123267;1105;104389;-80
2021/03/06 01:29:27;;;;;;;12.23;10.80;;;;;;;-0.16;69.94;101484.59;123336;1105;104660;-81
2021/03/06 01:31:54;;;;;;;12.70;10.47;;;;;;;-0.12;70.15;101476.00;123299;1105;104448;-82
2021/03/06 01:34:21;;;;;;;12.43;11.03;;;;;;;-0.13;70.69;101482.06;123283;1106;104308;-81
2021/03/06 01:36:50;;;;;;;13.47;12.07;;;;;;;-0.15;70.22;101483.72;123488;1105;104300;-80
2021/03/06 01:39:18;;;;;;;17.50;13.20;;;;;;;-0.19;71.05;101485.36;123251;1105;104251;-81
2021/03/06 01:41:51;;;;;;;15.68;12.55;;;;;;;-0.23;70.31;101491.30;123313;1105;104374;-82
2021/03/06 01:44:20;;;;;;;18.25;13.83;;;;;;;-0.26;70.83;101490.33;123458;1105;104306;-82
2021/03/06 01:46:52;;;;;;;19.30;14.60;;;;;;;-0.18;70.51;101486.24;123283;1103;104190;-81
2021/03/06 01:49:21;;;;;;;14.78;12.25;;;;;;;-0.20;70.43;101485.28;123236;1105;104399;-80
2021/03/06 01:51:48;;;;;;;17.97;13.50;;;;;;;-0.19;70.47;101481.84;123209;1105;104390;-83
2021/03/06 01:54:14;;;;;;;15.28;12.05;;;;;;;-0.22;70.21;101473.89;123298;1105;104977;-83
2021/03/06 01:56:42;;;;;;;17.97;11.97;;;;;;;-0.31;70.92;101481.41;123336;1105;104704;-82
2021/03/06 01:59:10;;;;;;;19.20;13.40;;;;;;;-0.31;70.26;101477.05;123316;1105;104427;-82
2021/03/06 02:01:36;;;;;;;19.40;13.33;;;;;;;-0.43;70.34;101467.03;123342;1105;104626;-82
2021/03/06 02:04:03;;;;;;;15.17;13.63;;;;;;;-0.35;70.77;101481.31;123363;1105;104195;-84
2021/03/06 02:06:31;;;;;;;23.43;15.93;;;;;;;-0.34;70.40;101485.69;123234;1106;104207;-83
2021/03/06 02:08:57;;;;;;;20.53;14.97;;;;;;;-0.31;70.45;101470.94;123114;1105;104348;-82
2021/03/06 02:11:43;;;;;;;16.47;10.73;;;;;;;-0.40;70.17;101477.64;123280;1106;104402;-82
2021/03/06 02:14:28;;;;;;;13.47;11.10;;;;;;;-0.40;70.38;101475.02;123249;1105;104360;-81
2021/03/06 02:17:25;;;;;;;13.38;11.83;;;;;;;-0.38;70.29;101482.92;123137;1105;104698;-82
2021/03/06 02:20:45;;;;;;;11.88;10.70;;;;;;;-0.35;70.06;101476.08;122751;1109;104316;-83
2021/03/06 02:24:04;;;;;;;13.43;10.03;;;;;;;-0.42;70.14;101473.18;122514;1109;104466;-81
2021/03/06 02:27:05;;;;;;;13.98;11.88;;;;;;;-0.39;69.85;101483.75;122786;1109;104412;-84
2021/03/06 02:29:52;;;;;;;14.45;11.95;;;;;;;-0.38;70.21;101489.03;122540;1109;104350;-82
2021/03/06 02:32:25;;;;;;;14.90;12.43;;;;;;;-0.38;69.94;101502.12;122572;1109;104367;-81
2021/03/06 02:35:06;;;;;;;20.60;13.20;;;;;;;-0.32;69.69;101501.47;122615;1109;104533;-85
2021/03/06 02:37:50;;;;;;;13.07;11.40;;;;;;;-0.27;69.42;101493.77;122572;1109;105371;-81
2021/03/06 02:40:32;;;;;;;14.90;10.90;;;;;;;-0.35;69.54;101503.95;122565;1109;104435;-81
2021/03/06 02:43:19;;;;;;;18.70;10.48;;;;;;;-0.32;69.26;101500.56;122339;1112;104696;-81
2021/03/06 02:45:49;;;;;;;20.23;11.28;;;;;;;-0.31;69.15;101503.23;122369;1112;104405;-81
2021/03/06 02:48:22;;;;;;;11.33;10.13;;;;;;;-0.37;69.14;101508.27;122483;1112;104421;-81
2021/03/06 02:50:59;;;;;;;15.27;11.10;;;;;;;-0.34;69.10;101508.36;122717;1112;104408;-79
2021/03/06 02:53:41;;;;;;;11.95;10.55;;;;;;;-0.36;69.13;101504.79;122421;1112;104521;-80
2021/03/06 02:56:07;;;;;;;11.27;10.17;;;;;;;-0.41;69.00;101511.61;122671;1112;104447;-80
2021/03/06 02:59:00;;;;;;;11.55;10.40;;;;;;;-0.32;68.48;101519.80;122662;1109;104565;-81
2021/03/06 03:01:43;;;;;;;13.00;10.90;;;;;;;-0.36;68.69;101518.78;122905;1109;104332;-79
2021/03/06 03:04:37;;;;;;;14.63;11.53;;;;;;;-0.34;68.79;101514.48;123181;1109;104524;-81
2021/03/06 03:07:17;;;;;;;12.47;11.17;;;;;;;-0.38;68.74;101516.95;123211;1109;104293;-80
2021/03/06 03:09:44;;;;;;;12.53;11.33;;;;;;;-0.36;68.90;101524.02;123245;1108;104675;-82
2021/03/06 03:12:18;;;;;;;12.95;11.60;;;;;;;-0.38;68.58;101527.41;123173;1109;104456;-81
2021/03/06 03:14:57;;;;;;;15.33;12.47;;;;;;;-0.36;68.82;101531.87;123300;1109;104443;-81
2021/03/06 03:17:31;;;;;;;14.13;11.73;;;;;;;-0.36;68.92;101526.64;123122;1109;104577;-81
2021/03/06 03:20:03;;;;;;;12.85;11.55;;;;;;;-0.35;68.51;101527.52;123184;1109;104527;-81
2021/03/06 03:22:36;;;;;;;14.75;12.73;;;;;;;-0.45;68.27;101534.15;123378;1105;104252;-80
2021/03/06 03:25:12;;;;;;;15.33;12.07;;;;;;;-0.47;68.66;101535.80;123227;1106;104421;-81
2021/03/06 03:27:52;;;;;;;16.27;12.30;;;;;;;-0.46;68.72;101532.36;123223;1109;104744;-80
2021/03/06 03:30:21;;;;;;;14.90;11.70;;;;;;;-0.51;68.63;101537.44;123155;1105;104434;-82
2021/03/06 03:32:50;;;;;;;15.93;12.93;;;;;;;-0.57;68.94;101539.81;123192;1109;104412;-81
2021/03/06 03:35:20;;;;;;;12.95;11.50;;;;;;;-0.55;68.99;101535.55;123241;1105;104383;-80
2021/03/06 03:37:49;;;;;;;19.57;13.60;;;;;;;-0.50;68.59;101546.17;123275;1106;104236;-81
2021/03/06 03:40:18;;;;;;;15.77;13.77;;;;;;;-0.53;68.89;101543.45;123116;1105;104335;-80
2021/03/06 03:42:45;;;;;;;15.20;13.08;;;;;;;-0.51;68.74;101549.61;123250;1106;104520;-81
2021/03/06 03:45:13;;;;;;;14.40;12.27;;;;;;;-0.76;68.84;101527.77;123206;1106;104380;-81
2021/03/06 03:47:42;;;;;;;15.90;12.40;;;;;;;-0.60;68.83;101565.87;123364;1105;104332;-81
2021/03/06 03:50:15;;;;;;;16.48;13.60;;;;;;;-0.63;69.15;101563.12;123210;1109;104571;-82
2021/03/06 03:52:50;;;;;;;18.75;12.70;;;;;;;-0.61;68.90;101568.41;123271;1105;104488;-82
2021/03/06 03:55:36;;;;;;;16.57;13.45;;;;;;;-0.62;69.05;101570.14;123269;1109;104425;-85
2021/03/06 03:58:11;;;;;;;14.55;13.03;;;;;;;-0.67;69.03;101576.91;123225;1106;104680;-81
2021/03/06 04:00:52;;;;;;;;;;;;;;;;;;;;;
2021/03/06 04:03:21;;;;;;;13.67;12.23;;;;;;;-0.71;69.21;101582.86;123091;1106;104609;-82
2021/03/06 04:05:48;;;;;;;13.43;11.90;;;;;;;-0.70;69.28;101575.07;122605;1105;104465;-83
2021/03/06 04:08:14;;;;;;;13.10;11.68;;;;;;;-0.70;68.95;101572.45;122608;1105;104287;-83
2021/03/06 04:10:41;;;;;;;17.15;12.33;;;;;;;-0.70;68.64;101587.27;123500;1106;104513;-83
2021/03/06 04:13:09;;;;;;;15.10;12.93;;;;;;;-0.75;68.84;101584.45;123472;1105;104255;-83
2021/03/06 04:15:35;;;;;;;15.83;12.53;;;;;;;-0.76;68.95;101585.31;123421;1105;104365;-81
2021/03/06 04:18:06;;;;;;;13.70;12.33;;;;;;;-0.82;69.19;101581.57;123450;1105;104347;-82
2021/03/06 04:20:34;;;;;;;17.17;13.05;;;;;;;-0.82;69.50;101587.68;123623;1105;104351;-82
2021/03/06 04:23:05;;;;;;;15.03;11.07;;;;;;;-0.83;69.06;101598.09;123480;1105;104331;-82
2021/03/06 04:25:37;;;;;;;15.88;12.60;;;;;;;-0.91;69.29;101588.19;123174;1105;104983;-81
2021/03/06 04:28:08;;;;;;;17.70;12.63;;;;;;;-0.98;69.19;101588.80;122909;1105;104390;-82
2021/03/06 04:30:36;;;;;;;13.30;11.87;;;;;;;-0.98;69.17;101590.53;122955;1105;104469;-82
2021/03/06 04:33:09;;;;;;;14.20;12.05;;;;;;;-0.97;69.41;101601.05;122770;1105;104373;-81
2021/03/06 04:35:38;;;;;;;15.37;11.33;;;;;;;-0.94;68.69;101595.92;122919;1105;104236;-82
2021/03/06 04:38:21;;;;;;;13.90;11.60;;;;;;;-1.00;69.17;101603.52;122659;1106;104376;-82
2021/03/06 04:40:54;;;;;;;12.65;11.43;;;;;;;-0.98;69.30;101612.33;122791;1106;104393;-81
2021/03/06 04:43:30;;;;;;;14.85;11.90;;;;;;;-0.98;68.99;101614.06;122997;1105;104402;-82
2021/03/06 04:46:00;;;;;;;15.03;11.70;;;;;;;-0.97;68.96;101616.73;123197;1105;104986;-82
2021/03/06 04:48:35;;;;;;;12.60;11.40;;;;;;;-0.94;69.72;101613.35;123552;1105;104392;-82
2021/03/06 04:51:07;;;;;;;18.60;13.85;;;;;;;-0.96;69.06;101626.37;123597;1105;104191;-81
2021/03/06 04:53:35;;;;;;;13.60;12.30;;;;;;;-0.97;69.27;101621.97;123507;1105;104301;-81
2021/03/06 04:56:02;;;;;;;16.90;11.70;;;;;;;-1.02;69.46;101620.88;123266;1106;104364;-83
2021/03/06 04:58:30;;;;;;;13.30;11.97;;;;;;;-0.97;69.48;101621.97;123498;1105;104451;-83
2021/03/06 05:00:56;;;;;;;16.67;11.37;;;;;;;-0.94;69.47;101614.23;123544;1105;104220;-82
2021/03/06 05:03:37;;;;;;;13.33;12.07;;;;;;;-0.86;69.24;101614.55;123286;1108;104680;-82
2021/03/06 05:06:04;;;;;;;17.13;13.37;;;;;;;-0.80;69.09;101614.80;123240;1109;104332;-83
2021/03/06 05:08:31;;;;;;;14.03;12.65;;;;;;;-0.74;68.78;101620.25;123432;1106;104545;-82
2021/03/06 05:10:57;;;;;;;18.40;11.97;;;;;;;-0.70;69.10;101616.92;123633;1105;104613;-81
2021/03/06 05:13:30;;;;;;;16.20;12.00;;;;;;;-0.67;68.63;101618.77;123496;1105;104224;-81
2021/03/06 05:16:03;;;;;;;15.53;12.43;;;;;;;-0.66;68.83;101622.30;123787;1105;104252;-81
2021/03/06 05:18:49;;;;;;;16.10;11.60;;;;;;;-0.62;68.44;101619.84;123510;1105;104356;-82
2021/03/06 05:21:40;;;;;;;13.85;11.70;;;;;;;-0.66;68.56;101623.18;123293;1108;105926;-84
2021/03/06 05:24:24;;;;;;;11.43;10.17;;;;;;;-0.69;68.32;101623.07;123211;1109;104220;-82
2021/03/06 05:27:03;;;;;;;12.75;11.45;;;;;;;-0.68;68.50;101620.51;123279;1108;104434;-82
2021/03/06 05:29:40;;;;;;;11.10;9.77;;;;;;;-0.65;68.85;101616.21;123488;1109;104424;-82
2021/03/06 05:32:09;;;;;;;16.42;11.80;;;;;;;-0.59;68.46;101626.92;123483;1108;104408;-83
2021/03/06 05:34:40;;;;;;;11.97;10.43;;;;;;;-0.62;68.63;101627.70;123448;1108;104370;-84
2021/03/06 05:37:06;;;;;;;12.87;11.67;;;;;;;-0.56;68.42;101629.66;123390;1109;104680;-82
2021/03/06 05:39:35;;;;;;;14.33;11.03;;;;;;;-0.60;68.41;101633.89;123373;1109;104422;-84
2021/03/06 05:42:17;;;;;;;12.27;10.50;;;;;;;-0.61;68.44;101636.42;123235;1109;104254;-83
2021/03/06 05:44:55;;;;;;;15.70;11.03;;;;;;;-0.61;68.47;101632.11;123281;1108;104479;-82
2021/03/06 05:47:32;;;;;;;15.90;11.67;;;;;;;-0.56;68.49;101640.13;123317;1108;104674;-83
2021/03/06 05:50:14;;;;;;;11.65;10.45;;;;;;;-0.43;68.52;101646.73;123270;1109;104479;-82
2021/03/06 05:52:46;;;;;;;16.60;10.80;;;;;;;-0.35;67.91;101645.30;123497;1109;104351;-83
2021/03/06 05:55:19;;;;;;;11.57;10.25;;;;;;;-0.33;68.17;101635.80;123305;1108;104326;-82
2021/03/06 05:57:56;;;;;;;13.78;9.58;;;;;;;-0.26;68.41;101643.03;123308;1108;104290;-85
2021/03/06 06:00:26;;;;;;;10.03;9.00;;;;;;;-0.26;67.95;101647.39;123648;1105;104329;-82
2021/03/06 06:02:56;;;;;;;14.07;9.87;;;;;;;-0.15;67.95;101642.55;123641;1105;104740;-81
2021/03/06 06:05:26;;;;;;;14.93;11.45;;;;;;;-0.13;68.01;101649.64;123711;1106;104331;-83
2021/03/06 06:07:54;;;;;;;13.83;10.57;;;;;;;-0.14;67.69;101654.82;123569;1105;104194;-83
2021/03/06 06:10:23;;;;;;;16.82;12.33;;;;;;;-0.09;68.16;101655.89;123578;1106;104874;-82
2021/03/06 06:13:12;;;;;;;15.40;11.50;;;;;;;-0.07;67.92;101662.94;123462;1106;104245;-82
2021/03/06 06:15:54;;;;;;;14.40;11.70;;;;;;;-0.23;68.21;101627.43;123574;1105;105050;-85
2021/03/06 06:18:26;;;;;;;18.33;11.50;;;;;;;-0.06;67.64;101662.11;123581;1105;104265;-83
2021/03/06 06:20:54;;;;;;;17.07;12.60;;;;;;;0.07;67.33;101660.85;123635;1106;104544;-85
2021/03/06 06:23:28;;;;;;;13.50;12.10;;;;;;;0.06;67.80;101671.28;123749;1105;104296;-82
2021/03/06 06:25:59;;;;;;;17.17;12.43;;;;;;;0.05;68.09;101672.98;123647;1105;104345;-82
2021/03/06 06:28:27;;;;;;;12.47;11.25;;;;;;;-0.01;67.51;101676.28;123795;1105;105553;-82
2021/03/06 06:31:16;;;;;;;14.75;13.30;;;;;;;0.04;67.72;101672.94;123619;1106;104657;-86
2021/03/06 06:33:45;;;;;;;14.07;12.58;;;;;;;0.12;68.39;101681.96;123820;1105;104204;-82
2021/03/06 06:36:39;;;;;;;16.33;13.63;;;;;;;0.17;68.41;101685.65;123631;1106;104235;-82
2021/03/06 06:39:26;;;;;;;19.60;15.88;;;;;;;0.15;67.58;101688.22;123559;1105;105143;-82
2021/03/06 06:42:12;;;;;;;16.77;13.93;;;;;;;0.15;68.00;101690.84;123580;1106;104137;-83
2021/03/06 06:45:04;;;;;;;22.45;15.03;;;;;;;0.25;67.68;101694.67;123676;1105;104219;-83
2021/03/06 06:47:41;;;;;;;17.30;13.50;;;;;;;0.35;67.86;101702.88;123580;1105;104702;-81
2021/03/06 06:50:11;;;;;;;17.83;12.43;;;;;;;0.39;68.01;101695.20;123575;1105;105510;-82
2021/03/06 06:52:43;;;;;;;16.03;12.50;;;;;;;0.37;67.80;101696.86;123749;1105;104344;-80
2021/03/06 06:55:39;;;;;;;17.03;12.63;;;;;;;0.40;68.14;101694.37;123577;1105;104351;-82
2021/03/06 06:58:06;;;;;;;13.55;10.68;;;;;;;0.41;68.27;101696.12;123520;1106;104348;-82
2021/03/06 07:00:37;;;;;;;19.73;14.15;;;;;;;0.48;68.13;101699.86;123521;1106;104278;-83
2021/03/06 07:03:07;;;;;;;14.73;11.73;;;;;;;0.49;67.99;101697.33;123501;1105;104156;-81
2021/03/06 07:05:38;;;;;;;19.60;11.83;;;;;;;0.47;67.47;101700.73;123497;1105;104344;-83
2021/03/06 07:08:07;;;;;;;18.60;13.93;;;;;;;0.49;67.50;101694.70;123604;1105;104220;-82
2021/03/06 07:10:35;;;;;;;19.83;14.47;;;;;;;0.56;67.29;101702.77;123327;1105;104287;-81
2021/03/06 07:13:07;;;;;;;23.92;15.75;;;;;;;0.66;67.05;101702.27;123550;1105;104284;-82
2021/03/06 07:15:34;;;;;;;16.00;13.03;;;;;;;0.75;67.02;101701.70;123524;1105;105000;-83
2021/03/06 07:18:19;;;;;;;15.33;12.70;;;;;;;0.76;67.12;101703.47;122778;1109;104328;-81
2021/03/06 07:20:46;;;;;;;20.32;13.62;;;;;;;0.80;67.33;101702.73;122571;1109;104387;-86
2021/03/06 07:23:28;;;;;;;20.50;14.20;;;;;;;0.94;66.83;101700.60;122542;1109;104804;-81
2021/03/06 07:25:59;;;;;;;20.17;14.53;;;;;;;0.94;66.52;101705.84;122657;1109;104388;-80
2021/03/06 07:28:28;;;;;;;16.23;12.10;;;;;;;0.98;66.58;101708.61;122917;1108;104208;-81
2021/03/06 07:30:57;;;;;;;17.07;14.07;;;;;;;0.98;66.50;101710.36;122973;1109;104478;-82
2021/03/06 07:33:26;;;;;;;14.93;13.25;;;;;;;1.00;66.57;101706.06;123376;1109;104552;-82
2021/03/06 07:35:55;;;;;;;18.93;13.97;;;;;;;1.03;66.59;101702.62;123369;1109;104334;-82
2021/03/06 07:38:26;;;;;;;15.73;13.40;;;;;;;1.12;66.60;101692.44;123492;1109;104312;-82
2021/03/06 07:41:02;;;;;;;19.83;14.17;;;;;;;1.26;66.55;101703.41;123246;1108;104332;-82
2021/03/06 07:43:41;;;;;;;17.60;13.57;;;;;;;1.27;66.57;101705.20;122982;1109;104363;-81
2021/03/06 07:46:10;;;;;;;15.30;13.70;;;;;;;1.29;66.23;101704.41;123202;1109;104389;-82
2021/03/06 07:48:41;;;;;;;18.12;12.93;;;;;;;1.23;65.61;101709.45;122897;1109;106045;-82
2021/03/06 07:51:08;;;;;;;16.13;12.37;;;;;;;1.25;65.75;101706.88;122590;1109;104401;-82
2021/03/06 07:53:38;;;;;;;24.47;12.50;;;;;;;1.40;65.99;101701.22;122597;1109;104441;-82
2021/03/06 07:56:24;;;;;;;12.93;11.07;;;;;;;1.49;65.52;101712.94;122641;1106;104395;-81
2021/03/06 07:58:58;;;;;;;16.73;12.80;;;;;;;1.62;65.33;101710.69;122858;1105;104286;-81
2021/03/06 08:01:40;;;;;;;15.60;11.70;;;;;;;1.72;65.18;101711.86;123203;1105;104424;-81
2021/03/06 08:04:37;;;;;;;16.73;11.97;;;;;;;1.89;64.91;101715.02;123543;1106;104228;-80
2021/03/06 08:07:11;;;;;;;17.20;12.20;;;;;;;1.95;64.50;101720.47;123501;1105;104252;-82
2021/03/06 08:10:00;;;;;;;14.93;11.43;;;;;;;1.93;64.38;101723.05;123359;1106;104310;-80
2021/03/06 08:12:31;;;;;;;16.67;13.67;;;;;;;1.92;64.81;101722.98;123123;1105;104460;-79
2021/03/06 08:14:59;;;;;;;21.97;15.95;;;;;;;2.00;64.44;101718.88;123456;1105;104274;-81
2021/03/06 08:17:37;;;;;;;35.03;22.87;;;;;;;2.04;63.95;101715.48;123182;1106;104305;-82
2021/03/06 08:20:22;;;;;;;23.57;15.70;;;;;;;2.03;63.72;101718.05;123258;1105;104418;-82
2021/03/06 08:23:22;;;;;;;14.57;12.00;;;;;;;1.95;63.80;101717.84;123272;1105;104440;-83
2021/03/06 08:26:20;;;;;;;14.68;11.55;;;;;;;1.94;64.07;101718.67;123328;1106;104398;-92
2021/03/06 08:29:24;;;;;;;21.02;15.23;;;;;;;2.02;63.90;101718.91;123302;1109;104562;-80
2021/03/06 08:32:20;;;;;;;25.17;16.25;;;;;;;2.06;63.24;101728.67;123342;1109;104335;-82
2021/03/06 08:34:48;;;;;;;24.02;17.48;;;;;;;2.26;63.81;101718.74;123321;1109;104390;-84
2021/03/06 08:40:11;;;;;;;15.17;11.67;;;;;;;2.40;62.66;101717.41;123380;1109;104424;-83
2021/03/06 08:42:53;;;;;;;16.23;14.07;;;;;;;2.66;62.08;101723.38;123562;1105;104346;-82
2021/03/06 08:45:35;;;;;;;18.52;11.38;;;;;;;2.77;61.89;101722.78;123213;1105;104447;-82
2021/03/06 08:48:05;;;;;;;15.43;12.20;;;;;;;2.87;61.71;101722.19;123284;1105;104307;-83
2021/03/06 08:50:37;;;;;;;19.90;14.27;;;;;;;2.91;61.31;101721.42;123055;1105;104668;-83
2021/03/06 08:53:14;;;;;;;14.05;10.50;;;;;;;2.79;60.66;101723.73;123144;1105;104310;-82
2021/03/06 08:55:44;;;;;;;17.30;12.15;;;;;;;2.79;60.21;101718.47;123134;1105;104302;-87
2021/03/06 08:58:18;;;;;;;14.27;11.37;;;;;;;2.81;61.15;101716.75;123318;1105;104329;-82
2021/03/06 09:00:51;;;;;;;19.12;12.73;;;;;;;2.87;60.87;101721.31;123483;1105;104271;-82
2021/03/06 09:03:25;;;;;;;17.12;11.68;;;;;;;3.03;60.73;101719.98;123407;1105;104922;-82
2021/03/06 09:06:00;;;;;;;13.45;11.18;;;;;;;3.12;60.26;101723.72;123248;1105;104233;-83
2021/03/06 09:08:32;;;;;;;15.30;11.83;;;;;;;3.28;60.37;101716.20;123152;1105;104370;-84
2021/03/06 09:11:03;;;;;;;17.20;11.15;;;;;;;3.41;58.29;101707.77;123453;1105;104303;-83
2021/03/06 09:13:35;;;;;;;11.87;9.73;;;;;;;4.00;57.70;101696.81;123552;1105;104232;-85
2021/03/06 09:16:04;;;;;;;18.00;10.27;;;;;;;5.74;54.05;101689.36;123343;1105;104358;-85
2021/03/06 09:18:38;;;;;;;17.03;11.27;;;;;;;6.57;51.97;101693.10;123512;1105;104281;-85
2021/03/06 09:21:19;;;;;;;13.53;10.10;;;;;;;7.27;49.28;101699.06;123455;1105;104235;-84
2021/03/06 09:23:48;;;;;;;11.43;7.63;;;;;;;8.19;45.66;101686.36;123595;1105;104214;-83
2021/03/06 09:26:18;;;;;;;11.12;8.88;;;;;;;9.56;41.71;101681.27;124715;1105;104303;-85
2021/03/06 09:28:47;;;;;;;12.07;7.28;;;;;;;9.52;42.28;101683.95;124196;1106;104207;-84
2021/03/06 09:31:27;;;;;;;10.13;6.50;;;;;;;8.91;42.06;101681.30;123661;1105;104431;-85
2021/03/06 09:34:03;;;;;;;11.12;6.05;;;;;;;8.81;39.88;101688.34;123711;1105;104367;-83
2021/03/06 09:36:31;;;;;;;8.40;6.80;;;;;;;9.27;40.59;101679.55;123361;1105;104278;-83
2021/03/06 09:39:05;;;;;;;5.97;4.83;;;;;;;10.47;37.90;101670.37;123244;1105;104409;-84
2021/03/06 09:41:43;;;;;;;7.40;5.45;;;;;;;10.83;36.60;101671.03;123627;1105;104737;-83
2021/03/06 09:44:14;;;;;;;9.00;6.40;;;;;;;11.51;36.14;101676.67;123475;1105;104248;-80
2021/03/06 09:46:43;;;;;;;9.90;6.90;;;;;;;12.41;36.85;101672.13;122956;1106;104280;-83
2021/03/06 09:49:18;;;;;;;9.03;7.20;;;;;;;13.41;33.74;101672.41;124034;1105;104294;-82
2021/03/06 09:51:53;;;;;;;61.02;42.23;;;;;;;13.50;33.18;101674.92;124225;1106;104232;-84
2021/03/06 09:54:24;;;;;;;8.13;6.27;;;;;;;13.84;32.52;101659.11;124188;1105;105115;-84
2021/03/06 09:56:56;;;;;;;5.57;4.63;;;;;;;14.00;28.92;101665.04;123158;1105;104352;-83
2021/03/06 09:59:41;;;;;;;4.73;4.03;;;;;;;14.29;26.89;101668.92;123365;1105;104281;-85
2021/03/06 10:02:23;;;;;;;5.63;5.13;;;;;;;13.61;27.98;101669.37;123699;1105;105223;-83
2021/03/06 10:05:06;;;;;;;5.90;4.07;;;;;;;13.31;28.73;101671.66;123001;1109;104463;-85
2021/03/06 10:07:40;;;;;;;9.40;5.20;;;;;;;12.20;28.23;101674.20;123162;1109;104364;-84
2021/03/06 10:10:35;;;;;;;7.00;5.43;;;;;;;11.31;29.94;101690.20;123096;1109;104425;-84
2021/03/06 10:13:18;;;;;;;4.15;3.75;;;;;;;11.21;29.22;101696.53;123088;1109;104338;-82
2021/03/06 10:15:45;;;;;;;6.57;4.10;;;;;;;11.78;29.38;101687.09;123051;1109;104353;-85
2021/03/06 10:18:12;;;;;;;6.17;5.07;;;;;;;12.12;29.07;101684.97;123090;1109;104364;-86
2021/03/06 10:20:39;;;;;;;4.70;3.97;;;;;;;12.71;27.78;101679.75;123092;1108;104495;-83
2021/03/06 10:23:06;;;;;;;7.05;5.35;;;;;;;13.77;28.35;101683.34;122949;1109;104441;-84
2021/03/06 10:25:34;;;;;;;9.00;5.55;;;;;;;15.36;25.76;101677.19;122916;1109;104398;-84
2021/03/06 10:28:15;;;;;;;6.87;5.22;;;;;;;16.66;24.86;101677.11;123228;1109;104360;-84
2021/03/06 10:30:42;;;;;;;6.00;4.47;;;;;;;18.33;23.39;101670.52;122723;1108;104479;-85
2021/03/06 10:33:20;;;;;;;7.67;4.83;;;;;;;19.33;21.19;101676.42;122914;1108;104431;-86
2021/03/06 10:35:51;;;;;;;6.63;5.17;;;;;;;20.52;21.61;101666.55;123156;1109;104382;-84
2021/03/06 10:38:21;;;;;;;5.17;4.35;;;;;;;21.13;19.59;101660.95;122858;1108;104669;-84
2021/03/06 10:41:03;;;;;;;;;;;;;;;;;;;;;
2021/03/06 10:43:43;;;;;;;8.57;5.33;;;;;;;20.97;19.90;101659.01;123377;1105;104297;-84
2021/03/06 10:46:25;;;;;;;8.83;5.53;;;;;;;18.30;21.39;101654.44;123117;1109;104876;-85
2021/03/06 10:48:59;;;;;;;9.53;6.20;;;;;;;16.04;22.87;101662.80;123227;1108;104395;-83
2021/03/06 10:51:50;;;;;;;9.50;7.10;;;;;;;16.30;23.26;101654.91;123071;1105;104434;-82
2021/03/06 10:54:19;;;;;;;8.23;6.23;;;;;;;15.44;24.01;101656.38;123213;1105;104287;-84
2021/03/06 10:56:46;;;;;;;7.00;5.60;;;;;;;13.63;26.11;101652.37;123296;1106;104329;-85
2021/03/06 10:59:34;;;;;;;9.33;6.83;;;;;;;12.20;29.07;101653.70;123306;1105;104226;-85
2021/03/06 11:02:32;;;;;;;6.80;5.27;;;;;;;11.33;29.97;101655.55;123211;1105;104341;-84
2021/03/06 11:05:18;;;;;;;8.00;5.97;;;;;;;10.59;32.18;101646.31;123413;1106;105230;-83
2021/03/06 11:07:45;;;;;;;7.17;4.80;;;;;;;9.65;33.05;101649.34;123450;1105;104258;-83
2021/03/06 11:10:14;;;;;;;6.75;4.97;;;;;;;8.78;35.02;101640.54;123353;1105;104248;-82
2021/03/06 11:12:57;;;;;;;6.30;5.47;;;;;;;8.27;36.60;101635.09;123425;1105;104386;-85
2021/03/06 11:15:26;;;;;;;9.30;6.37;;;;;;;7.83;36.09;101628.73;123403;1105;104306;-81
2021/03/06 11:17:55;;;;;;;5.70;5.20;;;;;;;7.38;37.52;101631.11;123434;1105;104632;-82
2021/03/06 11:20:28;;;;;;;8.03;6.17;;;;;;;7.09;38.90;101622.95;123402;1105;104336;-83
2021/03/06 11:22:55;;;;;;;7.93;6.60;;;;;;;6.82;39.50;101627.14;123472;1106;104224;-82
2021/03/06 11:25:23;;;;;;;7.62;6.92;;;;;;;6.62;39.82;101616.37;123085;1105;104226;-84
2021/03/06 11:27:52;;;;;;;8.37;6.80;;;;;;;6.47;39.95;101614.47;123082;1105;104216;-86
2021/03/06 11:30:40;;;;;;;10.72;6.45;;;;;;;6.22;40.63;101608.90;123029;1105;104377;-86
2021/03/06 11:33:10;;;;;;;6.73;5.93;;;;;;;6.10;41.40;101612.29;123019;1105;104303;-84
2021/03/06 11:35:41;;;;;;;7.45;6.65;;;;;;;6.07;41.79;101616.67;123134;1105;104893;-83
2021/03/06 11:38:09;;;;;;;6.77;5.90;;;;;;;5.93;41.81;101608.52;123492;1105;104309;-83
2021/03/06 11:40:38;;;;;;;7.83;6.55;;;;;;;5.78;40.96;101607.45;123486;1105;104239;-83